createdAt,value
2022-11-20T00:01:19.880Z,17.63
2022-11-20T00:03:47.468Z,17.13
2022-11-20T00:06:18.512Z,17.80
2022-11-20T00:08:46.345Z,18.23
2022-11-20T00:11:16.389Z,20.23
2022-11-20T00:13:47.838Z,18.73
2022-11-20T00:16:16.912Z,18.60
2022-11-20T00:18:44.880Z,17.23
2022-11-20T00:21:16.967Z,17.20
2022-11-20T00:23:44.095Z,17.17
2022-11-20T00:26:13.710Z,17.73
2022-11-20T00:28:41.172Z,19.43
2022-11-20T00:31:11.792Z,19.60
2022-11-20T00:33:38.738Z,18.77
2022-11-20T00:36:16.851Z,18.93
2022-11-20T00:38:44.605Z,19.63
2022-11-20T00:41:16.498Z,19.93
2022-11-20T00:43:44.055Z,20.37
2022-11-20T00:46:18.986Z,20.13
2022-11-20T00:48:46.667Z,19.53
2022-11-20T00:51:19.223Z,19.77
2022-11-20T00:53:46.996Z,20.00
2022-11-20T00:56:17.511Z,19.43
2022-11-20T00:58:48.600Z,20.27
2022-11-20T01:01:21.401Z,21.97
2022-11-20T01:03:50.931Z,20.03
2022-11-20T01:06:21.657Z,20.07
2022-11-20T01:08:49.841Z,19.83
2022-11-20T01:11:19.954Z,18.70
2022-11-20T01:13:48.883Z,18.77
2022-11-20T01:16:17.524Z,18.03
2022-11-20T01:18:47.754Z,19.47
2022-11-20T01:21:23.717Z,18.10
2022-11-20T01:23:51.881Z,17.23
2022-11-20T01:26:25.378Z,17.97
2022-11-20T01:28:52.575Z,17.23
2022-11-20T01:31:25.405Z,16.27
2022-11-20T01:33:54.845Z,16.57
2022-11-20T01:36:24.122Z,14.50
2022-11-20T01:39:00.313Z,15.37
2022-11-20T01:41:48.727Z,15.30
2022-11-20T01:44:19.254Z,16.50
2022-11-20T01:46:55.201Z,16.40
2022-11-20T01:49:29.314Z,14.67
2022-11-20T01:52:01.302Z,15.43
2022-11-20T01:54:42.178Z,15.17
2022-11-20T01:57:11.744Z,15.60
2022-11-20T01:59:43.224Z,15.63
2022-11-20T02:02:10.257Z,16.13
2022-11-20T02:04:37.514Z,16.63
2022-11-20T02:07:06.470Z,16.70
2022-11-20T02:09:33.293Z,15.10
2022-11-20T02:12:00.513Z,15.17
2022-11-20T02:14:28.736Z,15.37
2022-11-20T02:16:56.250Z,15.53
2022-11-20T02:19:31.644Z,15.20
2022-11-20T02:22:13.567Z,15.03
2022-11-20T02:24:41.703Z,14.27
2022-11-20T02:27:25.687Z,15.67
2022-11-20T02:29:56.664Z,15.33
2022-11-20T02:32:34.425Z,14.83
2022-11-20T02:35:19.501Z,15.67
2022-11-20T02:37:51.264Z,14.10
2022-11-20T02:40:18.206Z,14.90
2022-11-20T02:42:45.047Z,17.00
2022-11-20T02:45:12.566Z,15.93
2022-11-20T02:47:39.338Z,15.90
2022-11-20T02:50:07.310Z,15.80
2022-11-20T02:52:34.164Z,15.27
2022-11-20T02:55:01.607Z,15.90
2022-11-20T02:57:28.981Z,16.67
2022-11-20T02:59:55.839Z,15.10
2022-11-20T03:02:22.882Z,14.93
2022-11-20T03:04:49.714Z,15.10
2022-11-20T03:07:16.825Z,15.13
2022-11-20T03:09:43.752Z,15.07
2022-11-20T03:12:10.501Z,13.37
2022-11-20T03:14:37.307Z,14.47
2022-11-20T03:17:04.155Z,13.50
2022-11-20T03:19:31.227Z,15.20
2022-11-20T03:21:58.036Z,15.60
2022-11-20T03:24:24.923Z,14.57
2022-11-20T03:26:51.767Z,15.63
2022-11-20T03:29:18.959Z,15.37
2022-11-20T03:31:45.908Z,15.40
2022-11-20T03:34:13.398Z,15.10
2022-11-20T03:36:41.475Z,16.63
2022-11-20T03:39:08.692Z,14.93
2022-11-20T03:41:40.416Z,15.77
2022-11-20T03:44:09.537Z,15.50
2022-11-20T03:46:36.433Z,15.53
2022-11-20T03:49:03.861Z,16.97
2022-11-20T03:51:33.594Z,15.70
2022-11-20T03:54:03.163Z,15.60
2022-11-20T03:56:32.284Z,16.27
2022-11-20T03:58:59.492Z,15.17
2022-11-20T04:01:29.164Z,14.73
2022-11-20T04:03:57.857Z,14.17
2022-11-20T04:06:27.523Z,14.33
2022-11-20T04:08:58.845Z,13.77
2022-11-20T04:11:28.238Z,15.17
2022-11-20T04:13:57.533Z,13.27
2022-11-20T04:16:26.433Z,13.87
2022-11-20T04:18:55.700Z,14.83
2022-11-20T04:21:22.971Z,13.10
2022-11-20T04:23:50.593Z,13.00
2022-11-20T04:26:18.020Z,13.03
2022-11-20T04:28:44.936Z,11.43
2022-11-20T04:31:14.586Z,12.73
2022-11-20T04:33:42.114Z,10.23
2022-11-20T04:36:13.422Z,9.93
2022-11-20T04:38:41.010Z,9.33
2022-11-20T04:41:09.510Z,8.73
2022-11-20T04:43:36.443Z,9.33
2022-11-20T04:46:03.461Z,9.07
2022-11-20T04:48:30.845Z,8.10
2022-11-20T04:50:57.894Z,8.47
2022-11-20T04:53:25.501Z,8.03
2022-11-20T04:55:52.312Z,7.80
2022-11-20T04:58:19.077Z,7.23
2022-11-20T05:00:45.909Z,8.00
2022-11-20T05:03:12.669Z,7.27
2022-11-20T05:05:39.538Z,7.33
2022-11-20T05:08:06.316Z,8.30
2022-11-20T05:10:33.164Z,8.00
2022-11-20T05:12:59.942Z,7.83
2022-11-20T05:15:26.986Z,8.27
2022-11-20T05:17:54.332Z,7.53
2022-11-20T05:20:21.532Z,7.70
2022-11-20T05:22:48.447Z,7.67
2022-11-20T05:25:15.321Z,7.47
2022-11-20T05:27:42.270Z,7.57
2022-11-20T05:30:09.872Z,7.10
2022-11-20T05:32:36.688Z,7.50
2022-11-20T05:35:03.650Z,7.40
2022-11-20T05:37:30.454Z,6.73
2022-11-20T05:39:57.236Z,6.73
2022-11-20T05:42:33.066Z,7.40
2022-11-20T05:45:01.590Z,7.10
2022-11-20T05:47:31.952Z,7.57
2022-11-20T05:49:58.709Z,7.50
2022-11-20T05:52:26.068Z,7.67
2022-11-20T05:54:52.813Z,7.53
2022-11-20T05:57:19.650Z,7.27
2022-11-20T05:59:46.482Z,7.23
2022-11-20T06:02:13.528Z,7.83
2022-11-20T06:04:40.526Z,6.53
2022-11-20T06:07:07.805Z,7.57
2022-11-20T06:09:34.825Z,8.13
2022-11-20T06:12:01.891Z,7.10
2022-11-20T06:14:28.765Z,6.90
2022-11-20T06:16:55.647Z,6.37
2022-11-20T06:19:22.715Z,6.53
2022-11-20T06:21:53.114Z,7.33
2022-11-20T06:24:20.063Z,7.50
2022-11-20T06:26:46.966Z,7.37
2022-11-20T06:29:13.826Z,7.83
2022-11-20T06:31:40.650Z,8.10
2022-11-20T06:34:07.910Z,8.00
2022-11-20T06:36:34.750Z,8.30
2022-11-20T06:39:02.094Z,7.40
2022-11-20T06:41:29.121Z,8.60
2022-11-20T06:43:56.277Z,8.07
2022-11-20T06:46:23.258Z,7.43
2022-11-20T06:48:50.851Z,8.23
2022-11-20T06:51:18.079Z,8.10
2022-11-20T06:53:44.895Z,7.50
2022-11-20T06:56:11.838Z,7.43
2022-11-20T06:58:38.781Z,6.83
2022-11-20T07:01:09.929Z,6.60
2022-11-20T07:03:37.216Z,5.67
2022-11-20T07:06:04.962Z,6.13
2022-11-20T07:08:31.914Z,5.90
2022-11-20T07:11:00.596Z,6.63
2022-11-20T07:13:28.617Z,5.97
2022-11-20T07:15:56.123Z,6.10
2022-11-20T07:18:22.962Z,9.57
2022-11-20T07:20:50.326Z,5.90
2022-11-20T07:23:17.184Z,5.33
2022-11-20T07:25:44.420Z,5.83
2022-11-20T07:28:11.693Z,6.13
2022-11-20T07:30:38.999Z,5.80
2022-11-20T07:33:05.794Z,6.10
2022-11-20T07:35:32.613Z,5.57
2022-11-20T07:37:59.454Z,5.80
2022-11-20T07:40:26.299Z,5.33
2022-11-20T07:42:55.481Z,5.90
2022-11-20T07:45:24.377Z,5.70
2022-11-20T07:47:51.900Z,5.30
2022-11-20T07:50:19.785Z,4.83
2022-11-20T07:52:46.629Z,13.03
2022-11-20T07:55:13.881Z,7.37
2022-11-20T07:57:41.096Z,5.87
2022-11-20T08:00:10.363Z,5.27
2022-11-20T08:02:41.721Z,5.90
2022-11-20T08:05:09.949Z,4.87
2022-11-20T08:07:41.649Z,4.67
2022-11-20T08:10:10.499Z,4.77
2022-11-20T08:12:56.143Z,4.77
2022-11-20T08:15:23.131Z,4.33
2022-11-20T08:18:15.450Z,4.97
2022-11-20T08:20:37.191Z,4.40
2022-11-20T08:23:06.792Z,4.57
2022-11-20T08:25:35.931Z,4.60
2022-11-20T08:28:15.881Z,4.60
2022-11-20T08:30:47.064Z,4.70
2022-11-20T08:33:13.902Z,9.53
2022-11-20T08:35:43.496Z,6.13
2022-11-20T08:38:10.730Z,4.47
2022-11-20T08:40:37.599Z,4.40
2022-11-20T08:43:04.443Z,4.67
2022-11-20T08:45:34.571Z,4.80
2022-11-20T08:48:03.932Z,6.07
2022-11-20T08:50:33.285Z,4.53
2022-11-20T08:53:05.486Z,4.57
2022-11-20T08:55:32.671Z,4.03
2022-11-20T08:57:59.505Z,4.77
2022-11-20T09:00:26.375Z,6.07
2022-11-20T09:02:53.459Z,4.10
2022-11-20T09:05:20.321Z,4.83
2022-11-20T09:07:47.129Z,3.70
2022-11-20T09:10:24.103Z,4.40
2022-11-20T09:12:52.708Z,4.23
2022-11-20T09:15:20.461Z,4.00
2022-11-20T09:17:59.215Z,5.17
2022-11-20T09:20:27.399Z,4.80
2022-11-20T09:22:54.530Z,4.83
2022-11-20T09:25:21.682Z,4.20
2022-11-20T09:27:48.809Z,3.90
2022-11-20T09:30:16.755Z,3.77
2022-11-20T09:32:44.046Z,4.13
2022-11-20T09:35:12.039Z,4.17
2022-11-20T09:37:39.223Z,4.30
2022-11-20T09:40:06.833Z,3.53
2022-11-20T09:42:45.846Z,5.33
2022-11-20T09:45:43.794Z,4.40
2022-11-20T09:48:16.481Z,4.37
2022-11-20T09:51:08.214Z,4.50
2022-11-20T09:53:37.995Z,4.50
2022-11-20T09:56:05.966Z,4.23
2022-11-20T09:58:41.517Z,4.63
2022-11-20T10:01:19.978Z,4.20
2022-11-20T10:04:01.915Z,4.00
2022-11-20T10:07:10.479Z,3.80
2022-11-20T10:09:44.834Z,4.00
2022-11-20T10:12:33.027Z,4.20
2022-11-20T10:15:27.858Z,4.17
2022-11-20T10:18:09.408Z,5.27
2022-11-20T10:20:54.455Z,3.80
2022-11-20T10:23:27.113Z,3.70
2022-11-20T10:26:12.141Z,3.93
2022-11-20T10:29:02.333Z,3.87
2022-11-20T10:31:40.442Z,3.53
2022-11-20T10:34:24.218Z,3.50
2022-11-20T10:37:04.697Z,3.60
2022-11-20T10:39:39.085Z,3.40
2022-11-20T10:42:12.161Z,4.57
2022-11-20T10:45:05.845Z,4.30
2022-11-20T10:47:33.903Z,3.17
2022-11-20T10:50:05.866Z,3.77
2022-11-20T10:52:38.656Z,3.77
2022-11-20T10:55:30.122Z,4.00
2022-11-20T10:58:23.370Z,4.70
2022-11-20T11:00:50.171Z,5.03
2022-11-20T11:03:28.408Z,4.00
2022-11-20T11:06:37.229Z,4.47
2022-11-20T11:09:20.718Z,3.90
2022-11-20T11:11:48.130Z,3.90
2022-11-20T11:14:16.791Z,6.13
2022-11-20T11:16:55.271Z,3.70
2022-11-20T11:19:23.744Z,3.30
2022-11-20T11:21:56.250Z,3.87
2022-11-20T11:24:46.253Z,4.20
2022-11-20T11:27:18.679Z,4.20
2022-11-20T11:29:46.947Z,4.53
2022-11-20T11:32:22.317Z,5.67
2022-11-20T11:35:20.084Z,3.57
2022-11-20T11:37:48.102Z,3.90
2022-11-20T11:40:24.220Z,3.77
2022-11-20T11:42:55.961Z,3.90
2022-11-20T11:45:23.296Z,3.57
2022-11-20T11:47:52.681Z,3.90
2022-11-20T11:50:27.758Z,3.87
2022-11-20T11:53:14.074Z,3.60
2022-11-20T11:56:10.880Z,3.43
2022-11-20T11:58:49.442Z,3.80
2022-11-20T12:01:35.144Z,3.23
2022-11-20T12:04:24.238Z,2.83
2022-11-20T12:07:24.251Z,3.47
2022-11-20T12:09:55.416Z,2.90
2022-11-20T12:12:31.152Z,2.83
2022-11-20T12:14:59.444Z,2.43
2022-11-20T12:17:26.302Z,3.03
2022-11-20T12:19:53.275Z,2.90
2022-11-20T12:22:55.035Z,2.83
2022-11-20T12:25:28.811Z,2.63
2022-11-20T12:28:16.469Z,2.60
2022-11-20T12:30:55.525Z,2.00
2022-11-20T12:33:55.614Z,3.33
2022-11-20T12:36:25.207Z,2.67
2022-11-20T12:39:10.597Z,2.40
2022-11-20T12:42:43.711Z,2.23
2022-11-20T12:45:22.802Z,2.50
2022-11-20T12:47:58.581Z,2.37
2022-11-20T12:51:08.031Z,3.13
2022-11-20T12:53:49.061Z,4.77
2022-11-20T12:56:39.483Z,2.87
2022-11-20T12:59:09.335Z,1.93
2022-11-20T13:01:45.772Z,5.13
2022-11-20T13:04:18.699Z,1.77
2022-11-20T13:06:46.030Z,2.00
2022-11-20T13:09:18.111Z,2.57
2022-11-20T13:12:05.993Z,2.80
2022-11-20T13:14:43.010Z,2.77
2022-11-20T13:17:43.245Z,1.70
2022-11-20T13:20:17.117Z,1.77
2022-11-20T13:23:00.850Z,1.87
2022-11-20T13:25:33.746Z,1.80
2022-11-20T13:28:04.492Z,2.13
2022-11-20T13:30:32.353Z,2.00
2022-11-20T13:33:02.113Z,1.97
2022-11-20T13:35:33.527Z,1.93
2022-11-20T13:38:12.526Z,1.80
2022-11-20T13:41:20.582Z,2.00
2022-11-20T13:43:49.163Z,2.10
2022-11-20T13:46:16.219Z,2.13
2022-11-20T13:48:44.814Z,2.00
2022-11-20T13:51:51.714Z,2.00
2022-11-20T13:54:37.058Z,2.13
2022-11-20T13:57:12.452Z,2.00
2022-11-20T13:59:54.207Z,2.23
2022-11-20T14:02:22.679Z,2.53
2022-11-20T14:04:52.135Z,2.37
2022-11-20T14:07:21.491Z,2.40
2022-11-20T14:09:58.234Z,2.40
2022-11-20T14:12:30.988Z,3.60
2022-11-20T14:14:58.643Z,2.70
2022-11-20T14:17:35.161Z,2.80
2022-11-20T14:20:15.198Z,2.60
2022-11-20T14:22:50.868Z,2.30
2022-11-20T14:25:17.680Z,2.37
2022-11-20T14:27:51.595Z,2.73
2022-11-20T14:30:21.853Z,2.97
2022-11-20T14:32:49.952Z,2.60
2022-11-20T14:35:27.666Z,2.33
2022-11-20T14:37:55.454Z,2.73
2022-11-20T14:40:28.659Z,3.20
2022-11-20T14:42:56.506Z,2.23
2022-11-20T14:45:24.916Z,2.67
2022-11-20T14:47:54.291Z,2.50
2022-11-20T14:50:26.754Z,2.60
2022-11-20T14:53:01.766Z,2.63
2022-11-20T14:55:37.337Z,2.57
2022-11-20T14:58:28.492Z,2.70
2022-11-20T15:00:57.866Z,2.80
2022-11-20T15:03:32.017Z,2.83
2022-11-20T15:05:59.129Z,2.80
2022-11-20T15:08:25.957Z,2.47
2022-11-20T15:10:53.967Z,3.43
2022-11-20T15:13:27.402Z,2.93
2022-11-20T15:15:56.776Z,2.90
2022-11-20T15:18:25.248Z,2.83
2022-11-20T15:20:52.800Z,3.13
2022-11-20T15:23:20.476Z,2.60
2022-11-20T15:25:49.445Z,2.50
2022-11-20T15:28:41.221Z,2.60
2022-11-20T15:31:12.340Z,2.37
2022-11-20T15:33:39.160Z,2.80
2022-11-20T15:36:06.192Z,2.70
2022-11-20T15:38:33.028Z,2.80
2022-11-20T15:40:59.812Z,3.20
2022-11-20T15:43:26.626Z,3.00
2022-11-20T15:46:00.382Z,2.90
2022-11-20T15:48:36.382Z,3.20
2022-11-20T15:51:12.109Z,2.80
2022-11-20T15:53:40.101Z,3.27
2022-11-20T15:56:07.650Z,3.30
2022-11-20T15:58:34.464Z,3.47
2022-11-20T16:01:01.410Z,3.50
2022-11-20T16:03:28.216Z,3.17
2022-11-20T16:05:55.007Z,3.30
2022-11-20T16:08:21.762Z,3.50
2022-11-20T16:10:48.672Z,3.70
2022-11-20T16:13:36.947Z,3.63
2022-11-20T16:16:09.040Z,3.50
2022-11-20T16:18:36.210Z,4.10
2022-11-20T16:21:03.597Z,3.90
2022-11-20T16:23:30.476Z,3.37
2022-11-20T16:25:57.290Z,3.57
2022-11-20T16:28:24.162Z,3.83
2022-11-20T16:30:50.984Z,3.03
2022-11-20T16:33:18.346Z,3.77
2022-11-20T16:35:45.242Z,4.80
2022-11-20T16:38:12.019Z,3.80
2022-11-20T16:40:38.807Z,4.87
2022-11-20T16:43:13.985Z,4.47
2022-11-20T16:45:45.256Z,4.10
2022-11-20T16:48:16.660Z,3.80
2022-11-20T16:50:52.074Z,4.10
2022-11-20T16:53:22.768Z,4.37
2022-11-20T16:55:49.654Z,4.03
2022-11-20T16:58:16.761Z,4.53
2022-11-20T17:00:50.104Z,4.47
2022-11-20T17:03:18.954Z,4.53
2022-11-20T17:05:45.727Z,4.80
2022-11-20T17:08:12.520Z,5.03
2022-11-20T17:10:39.294Z,8.47
2022-11-20T17:13:06.091Z,7.30
2022-11-20T17:15:32.856Z,6.90
2022-11-20T17:17:59.981Z,6.97
2022-11-20T17:20:26.837Z,7.03
2022-11-20T17:22:53.634Z,7.43
2022-11-20T17:25:20.409Z,7.53
2022-11-20T17:27:47.228Z,8.13
2022-11-20T17:30:14.205Z,9.13
2022-11-20T17:32:45.672Z,8.87
2022-11-20T17:35:12.462Z,9.20
2022-11-20T17:37:39.226Z,7.90
2022-11-20T17:40:06.581Z,8.30
2022-11-20T17:42:36.872Z,7.40
2022-11-20T17:45:04.726Z,6.50
2022-11-20T17:47:31.681Z,6.40
2022-11-20T17:49:58.581Z,5.60
2022-11-20T17:52:25.353Z,5.10
2022-11-20T17:54:55.964Z,4.73
2022-11-20T17:57:42.648Z,4.80
2022-11-20T18:00:13.083Z,4.60
2022-11-20T18:02:40.152Z,5.03
2022-11-20T18:05:07.277Z,5.07
2022-11-20T18:07:40.150Z,4.80
2022-11-20T18:10:09.013Z,5.10
2022-11-20T18:12:35.886Z,5.10
2022-11-20T18:15:02.853Z,5.80
2022-11-20T18:17:29.672Z,5.57
2022-11-20T18:20:26.774Z,4.53
2022-11-20T18:22:43.211Z,4.97
2022-11-20T18:25:10.426Z,6.30
2022-11-20T18:27:38.567Z,5.00
2022-11-20T18:30:05.824Z,4.90
2022-11-20T18:32:35.031Z,5.73
2022-11-20T18:35:02.127Z,5.00
2022-11-20T18:37:28.906Z,4.10
2022-11-20T18:39:56.506Z,4.77
2022-11-20T18:42:41.712Z,4.10
2022-11-20T18:45:08.772Z,4.63
2022-11-20T18:47:38.030Z,4.73
2022-11-20T18:50:07.530Z,4.53
2022-11-20T18:52:40.552Z,4.63
2022-11-20T18:55:08.421Z,4.43
2022-11-20T18:57:35.579Z,3.90
2022-11-20T19:00:08.960Z,3.93
2022-11-20T19:02:41.659Z,3.27
2022-11-20T19:05:11.106Z,4.67
2022-11-20T19:07:37.954Z,4.30
2022-11-20T19:10:06.132Z,3.70
2022-11-20T19:12:33.031Z,3.30
2022-11-20T19:14:59.868Z,4.03
2022-11-20T19:17:26.648Z,4.23
2022-11-20T19:19:54.987Z,4.33
2022-11-20T19:22:22.320Z,5.07
2022-11-20T19:24:49.549Z,5.97
2022-11-20T19:27:16.436Z,5.03
2022-11-20T19:29:43.254Z,5.63
2022-11-20T19:32:10.133Z,5.00
2022-11-20T19:34:37.051Z,5.07
2022-11-20T19:37:03.966Z,4.77
2022-11-20T19:39:30.866Z,5.43
2022-11-20T19:41:57.677Z,4.50
2022-11-20T19:44:24.544Z,4.97
2022-11-20T19:46:51.428Z,4.83
2022-11-20T19:49:18.261Z,4.30
2022-11-20T19:51:47.783Z,4.53
2022-11-20T19:54:14.897Z,4.60
2022-11-20T19:56:41.743Z,4.70
2022-11-20T19:59:08.570Z,5.23
2022-11-20T20:01:35.598Z,5.80
2022-11-20T20:04:05.188Z,5.93
2022-11-20T20:06:34.003Z,6.07
2022-11-20T20:09:04.231Z,6.53
2022-11-20T20:11:33.347Z,10.13
2022-11-20T20:14:07.903Z,8.90
2022-11-20T20:16:35.323Z,7.33
2022-11-20T20:19:03.698Z,8.60
2022-11-20T20:21:32.235Z,12.97
2022-11-20T20:23:59.729Z,12.00
2022-11-20T20:26:29.461Z,14.37
2022-11-20T20:28:56.396Z,16.40
2022-11-20T20:31:25.447Z,15.40
2022-11-20T20:33:52.424Z,14.53
2022-11-20T20:36:20.524Z,14.13
2022-11-20T20:38:47.894Z,14.70
2022-11-20T20:41:19.628Z,14.17
2022-11-20T20:44:05.194Z,14.80
2022-11-20T20:46:32.232Z,24.23
2022-11-20T20:48:59.052Z,15.23
2022-11-20T20:51:25.852Z,26.30
2022-11-20T20:53:52.699Z,14.80
2022-11-20T20:56:19.703Z,39.20
2022-11-20T20:58:46.664Z,15.43
2022-11-20T21:01:15.990Z,13.67
2022-11-20T21:03:43.136Z,16.50
2022-11-20T21:06:11.252Z,10.23
2022-11-20T21:08:40.637Z,11.70
2022-11-20T21:11:12.320Z,11.43
2022-11-20T21:13:41.072Z,13.87
2022-11-20T21:16:07.996Z,12.97
2022-11-20T21:18:35.444Z,10.77
2022-11-20T21:21:26.048Z,10.17
2022-11-20T21:23:53.670Z,9.30
2022-11-20T21:26:21.358Z,8.67
2022-11-20T21:28:49.953Z,8.63
2022-11-20T21:31:23.561Z,7.70
2022-11-20T21:33:52.445Z,7.37
2022-11-20T21:36:30.613Z,7.80
2022-11-20T21:38:59.455Z,8.73
2022-11-20T21:41:28.409Z,9.20
2022-11-20T21:46:44.950Z,11.77
2022-11-20T21:49:12.474Z,11.00
2022-11-20T21:51:39.333Z,11.00
2022-11-20T21:54:09.642Z,10.63
2022-11-20T21:56:36.696Z,10.60
2022-11-20T21:59:03.659Z,9.83
2022-11-20T22:01:30.906Z,9.93
2022-11-20T22:04:00.189Z,9.27
2022-11-20T22:06:32.632Z,8.60
2022-11-20T22:09:00.137Z,9.33
2022-11-20T22:11:27.480Z,9.50
2022-11-20T22:14:12.948Z,9.37
2022-11-20T22:16:39.835Z,9.67
2022-11-20T22:19:07.088Z,9.43
2022-11-20T22:21:34.805Z,9.50
2022-11-20T22:24:02.068Z,9.83
2022-11-20T22:26:33.803Z,8.90
2022-11-20T22:29:03.012Z,8.37
2022-11-20T22:31:31.085Z,8.23
2022-11-20T22:34:01.106Z,8.33
2022-11-20T22:36:29.787Z,6.90
2022-11-20T22:38:56.778Z,4.87
2022-11-20T22:41:27.399Z,4.10
2022-11-20T22:44:05.916Z,3.97
2022-11-20T22:46:35.389Z,3.70
2022-11-20T22:49:05.232Z,3.27
2022-11-20T22:51:34.557Z,3.70
2022-11-20T22:54:03.710Z,3.23
2022-11-20T22:56:31.063Z,3.17
2022-11-20T22:58:58.036Z,2.90
2022-11-20T23:01:29.006Z,2.70
2022-11-20T23:03:58.455Z,2.70
2022-11-20T23:06:26.168Z,2.80
2022-11-20T23:08:53.834Z,3.00
2022-11-20T23:11:23.736Z,2.50
2022-11-20T23:13:57.946Z,2.70
2022-11-20T23:16:26.625Z,2.70
2022-11-20T23:18:58.234Z,3.13
2022-11-20T23:21:25.834Z,2.90
2022-11-20T23:23:58.168Z,3.10
2022-11-20T23:26:27.685Z,2.97
2022-11-20T23:28:57.464Z,3.37
2022-11-20T23:31:25.961Z,3.30
2022-11-20T23:33:53.320Z,3.50
2022-11-20T23:36:20.654Z,3.63
2022-11-20T23:38:47.455Z,3.40
2022-11-20T23:41:14.595Z,3.43
2022-11-20T23:43:41.584Z,3.67
2022-11-20T23:46:13.715Z,3.10
2022-11-20T23:48:43.421Z,3.00
2022-11-20T23:51:10.229Z,2.83
2022-11-20T23:53:37.075Z,3.20
2022-11-20T23:56:05.446Z,2.90
2022-11-20T23:58:34.853Z,2.90
